Time;durP1;ratioP1;P1;durP2;ratioP2;P2;SDS_P1;SDS_P2;PMS_P1;PMS_P2;Temp;Humidity;BMP_temperature;BMP_pressure;BME280_temperature;BME280_humidity;BME280_pressure;Samples;Min_cycle;Max_cycle;Signal;HPM_P1;HPM_P2
2022/04/03 00:01:06;;;;;;;4.53;2.35;;;-0.80;99.90;;;;;;5035194;28;20132;-87
2022/04/03 00:03:34;;;;;;;3.20;2.47;;;-0.90;99.90;;;;;;5032181;28;20433;-86
2022/04/03 00:06:01;;;;;;;2.78;2.42;;;-0.90;99.90;;;;;;5033194;28;20079;-87
2022/04/03 00:08:28;;;;;;;2.88;2.00;;;-1.00;99.90;;;;;;5032245;28;20124;-87
2022/04/03 00:10:55;;;;;;;3.15;2.10;;;-0.90;99.90;;;;;;5032222;28;20269;-87
2022/04/03 00:13:22;;;;;;;4.53;2.20;;;-0.90;99.90;;;;;;5033258;28;20085;-87
2022/04/03 00:15:48;;;;;;;2.60;2.40;;;-1.00;99.90;;;;;;5033233;28;20053;-88
2022/04/03 00:18:16;;;;;;;4.88;2.00;;;-1.00;99.90;;;;;;5031843;28;20543;-88
2022/04/03 00:20:44;;;;;;;3.92;2.40;;;-1.10;99.90;;;;;;5035544;28;20101;-88
2022/04/03 00:23:11;;;;;;;3.65;2.30;;;-1.10;99.90;;;;;;5035705;28;20533;-88
2022/04/03 00:25:38;;;;;;;2.67;2.28;;;-1.10;99.90;;;;;;5035963;28;20124;-89
2022/04/03 00:28:05;;;;;;;2.45;2.25;;;-1.20;99.90;;;;;;5035704;28;20049;-89
2022/04/03 00:30:34;;;;;;;2.63;2.40;;;-1.30;99.90;;;;;;5035366;28;20133;-88
2022/04/03 00:33:01;;;;;;;4.20;2.25;;;-1.30;99.90;;;;;;5035436;28;20045;-89
2022/04/03 00:35:27;;;;;;;2.85;2.17;;;-1.40;99.90;;;;;;5035364;28;20077;-89
2022/04/03 00:37:54;;;;;;;5.28;2.28;;;-1.40;99.90;;;;;;5035712;28;20111;-89
2022/04/03 00:40:23;;;;;;;4.85;2.45;;;-1.40;99.90;;;;;;5035368;28;20131;-89
2022/04/03 00:42:50;;;;;;;2.60;2.50;;;-1.50;99.90;;;;;;5035263;28;20111;-88
2022/04/03 00:45:17;;;;;;;3.20;2.90;;;-1.60;99.90;;;;;;5035978;28;20076;-89
2022/04/03 00:47:45;;;;;;;4.20;2.40;;;-1.70;99.90;;;;;;5042750;28;20124;-89
2022/04/03 00:50:12;;;;;;;3.58;2.55;;;-1.80;99.90;;;;;;5035567;28;20500;-89
2022/04/03 00:52:38;;;;;;;4.40;2.33;;;-1.80;99.90;;;;;;5036332;28;20088;-90
2022/04/03 00:55:06;;;;;;;5.20;2.90;;;-1.90;99.90;;;;;;5035181;28;20413;-90
2022/04/03 00:57:34;;;;;;;3.88;2.53;;;-1.90;99.90;;;;;;5035132;28;20128;-90
2022/04/03 01:00:01;;;;;;;3.17;2.55;;;-2.10;99.90;;;;;;5034642;28;20089;-90
2022/04/03 01:02:28;;;;;;;4.75;2.55;;;-2.10;99.90;;;;;;5035024;28;20093;-90
2022/04/03 01:04:55;;;;;;;4.50;2.65;;;-2.10;99.90;;;;;;5035032;28;20129;-90
2022/04/03 01:07:22;;;;;;;5.78;2.72;;;-2.20;99.90;;;;;;5035171;28;20147;-89
2022/04/03 01:09:49;;;;;;;5.05;2.97;;;-2.30;99.90;;;;;;5035848;28;20615;-90
2022/04/03 01:12:16;;;;;;;5.85;2.65;;;-2.30;99.90;;;;;;5034530;28;20056;-90
2022/04/03 01:15:03;;;;;;;3.35;2.83;;;-2.30;99.90;;;;;;5035711;28;20144;-89
2022/04/03 01:17:30;;;;;;;4.50;2.92;;;-2.40;99.90;;;;;;5036224;28;20500;-90
2022/04/03 01:19:57;;;;;;;7.03;3.10;;;-2.50;99.90;;;;;;5034791;28;20068;-90
2022/04/03 01:22:23;;;;;;;4.95;2.75;;;-2.60;99.90;;;;;;5034320;28;20136;-89
2022/04/03 01:24:57;;;;;;;3.63;2.90;;;-2.70;99.90;;;;;;5034461;28;20115;-90
2022/04/03 01:27:24;;;;;;;4.80;2.83;;;-2.70;99.90;;;;;;5034879;28;20069;-90
2022/04/03 01:29:52;;;;;;;3.05;2.75;;;-2.70;99.90;;;;;;5035353;28;20049;-90
2022/04/03 01:32:20;;;;;;;6.45;2.90;;;-2.80;99.90;;;;;;5034442;28;20045;-90
2022/04/03 01:34:47;;;;;;;3.88;2.50;;;-2.80;99.90;;;;;;5035631;28;20083;-90
2022/04/03 01:37:14;;;;;;;3.90;2.92;;;-2.80;99.90;;;;;;5034443;28;20164;-90
2022/04/03 01:39:40;;;;;;;4.68;2.88;;;-2.90;99.90;;;;;;5035091;28;20049;-90
2022/04/03 01:42:07;;;;;;;4.95;3.42;;;-2.90;99.90;;;;;;5034275;28;20050;-90
2022/04/03 01:44:34;;;;;;;10.82;3.33;;;-2.90;99.90;;;;;;5034206;28;20136;-91
2022/04/03 01:47:02;;;;;;;5.25;3.30;;;-3.00;99.90;;;;;;5034331;28;20052;-90
2022/04/03 01:49:28;;;;;;;7.72;6.22;;;-3.00;99.90;;;;;;5034358;28;20048;-90
2022/04/03 01:51:55;;;;;;;5.30;4.20;;;-3.00;99.90;;;;;;5033977;28;20144;-91
2022/04/03 01:54:22;;;;;;;5.43;3.95;;;-3.00;99.90;;;;;;5034227;28;20080;-91
2022/04/03 01:56:49;;;;;;;4.88;3.20;;;-3.10;99.90;;;;;;5034613;28;20118;-91
2022/04/03 01:59:17;;;;;;;4.57;3.60;;;-3.20;99.90;;;;;;5034418;28;20506;-91
2022/04/03 02:01:44;;;;;;;5.68;3.05;;;-3.20;99.90;;;;;;5037024;28;20490;-91
2022/04/03 02:04:12;;;;;;;3.90;3.25;;;-3.10;99.90;;;;;;5038861;28;20045;-91
2022/04/03 02:06:40;;;;;;;3.65;3.35;;;-3.20;99.90;;;;;;5033858;28;20140;-91
2022/04/03 02:09:08;;;;;;;4.20;3.40;;;-3.30;99.90;;;;;;5033864;28;20116;-91
2022/04/03 02:11:38;;;;;;;5.45;3.47;;;-3.40;99.90;;;;;;5035040;28;20049;-91
2022/04/03 02:14:05;;;;;;;7.28;4.10;;;-3.40;99.90;;;;;;5033778;28;20055;-91
2022/04/03 02:16:32;;;;;;;5.55;3.55;;;-3.40;99.90;;;;;;5033600;28;20525;-91
2022/04/03 02:18:58;;;;;;;7.60;3.58;;;-3.40;99.90;;;;;;5033403;28;20068;-91
2022/04/03 02:21:25;;;;;;;4.28;3.17;;;-3.30;99.90;;;;;;5033837;28;20042;-92
2022/04/03 02:23:52;;;;;;;6.57;3.88;;;-3.30;99.90;;;;;;5034471;28;20137;-91
2022/04/03 02:26:19;;;;;;;5.95;3.60;;;-3.40;99.90;;;;;;5033213;28;20055;-91
2022/04/03 02:28:46;;;;;;;6.20;3.40;;;-3.40;99.90;;;;;;5034292;28;20085;-92
2022/04/03 02:31:14;;;;;;;5.15;3.72;;;-3.40;99.90;;;;;;5032961;28;20052;-92
2022/04/03 02:33:41;;;;;;;4.65;3.60;;;-3.30;99.90;;;;;;5033092;28;20079;-92
2022/04/03 02:36:07;;;;;;;6.80;4.13;;;-3.40;99.90;;;;;;5033130;28;20061;-92
2022/04/03 02:38:34;;;;;;;6.43;4.45;;;-3.30;99.90;;;;;;5034374;28;20107;-92
2022/04/03 02:41:01;;;;;;;6.45;4.18;;;-3.20;99.90;;;;;;5033079;28;20104;-93
2022/04/03 02:43:28;;;;;;;8.98;6.07;;;-3.00;99.90;;;;;;5032130;28;20544;-92
2022/04/03 02:45:55;;;;;;;5.05;4.55;;;-3.00;99.90;;;;;;5034039;28;20045;-93
2022/04/03 02:48:22;;;;;;;5.20;4.32;;;-2.90;99.90;;;;;;5033998;28;20050;-93
2022/04/03 02:50:49;;;;;;;4.53;3.58;;;-3.00;99.90;;;;;;5033005;28;20049;-93
2022/04/03 02:53:15;;;;;;;6.20;3.92;;;-3.10;99.90;;;;;;5032936;28;20064;-93
2022/04/03 02:55:42;;;;;;;3.67;3.15;;;-3.20;99.90;;;;;;5033059;28;20054;-93
2022/04/03 02:58:09;;;;;;;3.85;3.47;;;-3.20;99.90;;;;;;5033957;28;20050;-93
2022/04/03 03:00:36;;;;;;;4.80;3.13;;;-3.30;99.90;;;;;;5033850;28;20063;-93
2022/04/03 03:03:05;;;;;;;4.70;3.63;;;-3.40;99.90;;;;;;5032661;28;20162;-93
2022/04/03 03:05:32;;;;;;;4.35;3.47;;;-3.50;99.90;;;;;;5033832;28;20041;-94
2022/04/03 03:07:59;;;;;;;7.00;4.28;;;-3.50;99.90;;;;;;5033897;28;20072;-93
2022/04/03 03:10:26;;;;;;;6.75;3.92;;;-3.50;99.90;;;;;;5032683;28;20060;-94
2022/04/03 03:12:53;;;;;;;5.10;4.03;;;-3.70;99.90;;;;;;5034013;28;20042;-93
2022/04/03 03:15:21;;;;;;;4.95;3.80;;;-3.70;99.90;;;;;;5034050;28;20064;-93
2022/04/03 03:17:49;;;;;;;3.90;3.60;;;-3.80;99.90;;;;;;5048626;28;20033;-94
2022/04/03 03:20:21;;;;;;;4.38;3.75;;;-3.90;99.90;;;;;;5033528;28;20139;-93
2022/04/03 03:22:48;;;;;;;5.50;3.80;;;-3.90;99.90;;;;;;5032290;28;20049;-93
2022/04/03 03:25:15;;;;;;;7.15;3.90;;;-4.10;99.90;;;;;;5032498;28;20046;-93
2022/04/03 03:27:42;;;;;;;6.32;3.85;;;-4.20;99.90;;;;;;5032272;28;20553;-93
2022/04/03 03:30:09;;;;;;;7.32;4.13;;;-4.10;99.90;;;;;;5032645;28;20466;-94
2022/04/03 03:32:36;;;;;;;8.10;3.90;;;-4.10;99.90;;;;;;5032651;28;20060;-95
2022/04/03 03:35:04;;;;;;;7.97;4.35;;;-4.20;99.90;;;;;;5033595;28;20049;-95
2022/04/03 03:37:31;;;;;;;6.25;3.78;;;-4.20;99.90;;;;;;5032944;28;20140;-94
2022/04/03 03:39:58;;;;;;;6.45;4.03;;;-4.30;99.90;;;;;;5032542;28;20103;-95
2022/04/03 03:42:25;;;;;;;7.53;4.78;;;-4.20;99.90;;;;;;5032983;28;20103;-95
2022/04/03 03:44:52;;;;;;;8.70;4.03;;;-4.20;99.90;;;;;;5033577;28;20553;-94
2022/04/03 03:47:19;;;;;;;6.75;4.32;;;-4.20;99.90;;;;;;5032519;28;20158;-94
2022/04/03 03:49:46;;;;;;;5.90;4.60;;;-4.20;99.90;;;;;;5035447;28;20052;-94
2022/04/03 03:52:14;;;;;;;5.40;4.68;;;-4.20;99.90;;;;;;5050754;28;20045;-94
2022/04/03 03:54:40;;;;;;;10.63;4.57;;;-4.10;99.90;;;;;;5036530;28;20064;-94
2022/04/03 03:57:07;;;;;;;6.10;3.90;;;-4.30;99.90;;;;;;5036443;28;20104;-95
2022/04/03 03:59:35;;;;;;;5.43;4.13;;;-4.40;99.90;;;;;;5036567;28;20049;-95
2022/04/03 04:02:02;;;;;;;8.98;5.20;;;-4.40;99.90;;;;;;5036458;28;20111;-95
2022/04/03 04:04:30;;;;;;;9.13;5.80;;;-4.50;99.90;;;;;;5037450;28;20053;-95
2022/04/03 04:06:57;;;;;;;7.53;4.57;;;-4.40;99.90;;;;;;5036504;28;20473;-95
2022/04/03 04:09:24;;;;;;;11.27;5.70;;;-4.40;99.90;;;;;;5036999;28;20060;-95
2022/04/03 04:11:51;;;;;;;11.32;5.68;;;-4.40;99.90;;;;;;5036019;28;20076;-95
2022/04/03 04:14:18;;;;;;;7.28;5.03;;;-4.40;99.90;;;;;;5036455;28;20558;-96
2022/04/03 04:16:46;;;;;;;7.00;4.57;;;-4.50;99.90;;;;;;5036547;28;20053;-94
2022/04/03 04:19:15;;;;;;;6.53;4.57;;;-4.50;99.90;;;;;;5036296;28;20041;-95
2022/04/03 04:21:42;;;;;;;5.70;4.65;;;-4.50;99.90;;;;;;5036064;28;20053;-95
2022/04/03 04:24:10;;;;;;;9.18;4.45;;;-4.60;99.90;;;;;;5035702;28;20057;-95
2022/04/03 04:26:37;;;;;;;8.98;4.70;;;-4.70;99.90;;;;;;5036175;28;20046;-96
2022/04/03 04:29:04;;;;;;;9.25;4.80;;;-4.70;99.90;;;;;;5038451;28;20053;-95
2022/04/03 04:31:31;;;;;;;8.25;5.60;;;-4.80;99.90;;;;;;5046867;28;20049;-95
2022/04/03 04:33:58;;;;;;;6.13;5.10;;;-4.90;99.90;;;;;;5043741;28;20049;-96
2022/04/03 04:36:26;;;;;;;7.05;4.70;;;-4.90;99.90;;;;;;5036206;28;20045;-96
2022/04/03 04:38:59;;;;;;;5.88;3.97;;;-5.00;99.90;;;;;;5036154;28;20061;-96
2022/04/03 04:41:25;;;;;;;6.25;4.88;;;-4.90;99.90;;;;;;5037035;28;20073;-96
2022/04/03 04:43:53;;;;;;;7.80;4.55;;;-5.00;99.90;;;;;;5036797;28;20057;-96
2022/04/03 04:46:21;;;;;;;11.05;5.88;;;-5.00;99.90;;;;;;5040925;28;20073;-96
2022/04/03 04:48:49;;;;;;;8.93;6.03;;;-5.00;99.90;;;;;;5031355;28;20045;-96
2022/04/03 04:51:17;;;;;;;14.10;9.30;;;-5.00;99.90;;;;;;5032212;28;20050;-96
2022/04/03 04:53:44;;;;;;;11.38;5.78;;;-5.10;99.90;;;;;;5034020;28;20053;-96
2022/04/03 04:56:12;;;;;;;8.10;7.10;;;-5.00;99.90;;;;;;5034191;28;20053;-96
2022/04/03 04:58:40;;;;;;;16.65;8.32;;;-5.10;99.90;;;;;;5032993;28;20045;-96
2022/04/03 05:01:08;;;;;;;26.17;10.95;;;-5.10;99.90;;;;;;5044373;28;20053;-96
2022/04/03 05:03:35;;;;;;;24.50;9.45;;;-5.00;99.90;;;;;;5045563;28;20050;-96
2022/04/03 05:06:04;;;;;;;11.25;5.65;;;-5.00;99.90;;;;;;5047423;28;20054;-96
2022/04/03 05:08:31;;;;;;;7.07;5.38;;;-4.90;99.90;;;;;;5046864;28;20468;-96
2022/04/03 05:10:58;;;;;;;6.70;5.45;;;-4.70;99.90;;;;;;5032356;28;20045;-96
2022/04/03 05:13:28;;;;;;;6.68;4.82;;;-4.70;99.90;;;;;;5032668;28;20080;-96
2022/04/03 05:15:55;;;;;;;10.65;4.95;;;-4.60;99.90;;;;;;5051716;28;20045;-96
2022/04/03 05:18:22;;;;;;;9.95;4.50;;;-4.50;99.90;;;;;;5052949;28;20053;-96
2022/04/03 05:20:50;;;;;;;6.95;5.07;;;-4.50;99.90;;;;;;5035791;28;20083;-96
2022/04/03 05:23:17;;;;;;;6.38;4.45;;;-4.50;99.90;;;;;;5034657;28;20080;-96
2022/04/03 05:25:46;;;;;;;6.65;4.68;;;-4.40;99.90;;;;;;5035496;28;20045;-96
2022/04/03 05:28:13;;;;;;;12.23;4.63;;;-4.40;99.90;;;;;;5035752;28;20409;-96
2022/04/03 05:30:41;;;;;;;6.82;4.60;;;-4.40;99.90;;;;;;5032485;28;20088;-96
2022/04/03 05:33:08;;;;;;;7.53;5.05;;;-4.30;99.90;;;;;;5046626;28;20049;-96
2022/04/03 05:35:35;;;;;;;7.82;4.50;;;-4.30;99.90;;;;;;5030098;28;20056;-96
2022/04/03 05:38:03;;;;;;;8.80;4.93;;;-4.30;99.90;;;;;;5029982;28;20056;-96
2022/04/03 05:40:30;;;;;;;5.93;4.30;;;-4.20;99.90;;;;;;5044786;28;20045;-96
2022/04/03 05:42:59;;;;;;;14.23;5.80;;;-4.20;99.90;;;;;;5043390;28;20072;-96
2022/04/03 05:45:27;;;;;;;11.70;5.32;;;-4.20;99.90;;;;;;5045188;28;20466;-96
2022/04/03 05:47:54;;;;;;;17.60;9.13;;;-4.10;99.90;;;;;;5036651;28;20053;-96
2022/04/03 05:50:21;;;;;;;17.58;10.32;;;-3.90;99.90;;;;;;5036873;28;20041;-96
2022/04/03 05:52:50;;;;;;;19.75;10.88;;;-3.60;99.90;;;;;;5035871;28;20088;-96
2022/04/03 05:55:20;;;;;;;11.30;7.80;;;-2.70;99.90;;;;;;5036829;28;20412;-96
2022/04/03 05:57:49;;;;;;;20.38;12.88;;;-1.90;99.90;;;;;;5019341;28;20052;-95
2022/04/03 06:00:17;;;;;;;13.07;8.20;;;-0.90;99.90;;;;;;5035068;28;20306;-96
2022/04/03 06:02:57;;;;;;;9.00;5.97;;;-0.70;99.90;;;;;;5035364;28;20132;-94
2022/04/03 06:05:26;;;;;;;8.95;4.10;;;0.00;99.90;;;;;;5035730;28;20080;-94
2022/04/03 06:07:59;;;;;;;5.63;3.40;;;1.00;99.90;;;;;;5036999;28;20057;-93
2022/04/03 06:10:28;;;;;;;4.80;3.00;;;1.80;99.90;;;;;;5036040;28;20056;-93
2022/04/03 06:12:57;;;;;;;4.60;2.80;;;2.30;99.90;;;;;;5037671;28;20076;-92
2022/04/03 06:15:25;;;;;;;3.22;2.75;;;2.80;99.90;;;;;;5036728;28;20125;-92
2022/04/03 06:17:53;;;;;;;4.85;3.13;;;3.20;99.90;;;;;;5035730;28;20049;-92
2022/04/03 06:20:23;;;;;;;9.63;2.67;;;3.90;99.90;;;;;;5018213;28;20049;-92
2022/04/03 06:22:50;;;;;;;2.85;2.00;;;4.00;99.90;;;;;;5033988;28;20054;-91
2022/04/03 06:25:18;;;;;;;9.05;3.15;;;4.70;99.90;;;;;;5033857;28;20552;-91
2022/04/03 06:27:44;;;;;;;8.30;3.50;;;4.60;99.90;;;;;;5033993;28;20132;-91
2022/04/03 06:30:12;;;;;;;21.00;7.65;;;4.70;99.90;;;;;;5033847;28;20132;-91
2022/04/03 06:32:39;;;;;;;16.55;8.75;;;5.50;99.90;;;;;;5033880;28;20132;-91
2022/04/03 06:35:07;;;;;;;7.15;3.70;;;5.90;97.60;;;;;;5032214;28;20088;-91
2022/04/03 06:37:34;;;;;;;9.77;3.13;;;5.70;96.60;;;;;;5032935;28;20073;-90
2022/04/03 06:40:02;;;;;;;7.10;3.10;;;6.50;96.60;;;;;;5032917;28;20080;-90
2022/04/03 06:42:30;;;;;;;16.80;3.85;;;7.10;94.50;;;;;;5032809;28;20072;-90
2022/04/03 06:44:59;;;;;;;14.68;3.15;;;7.20;93.20;;;;;;5032275;28;20057;-90
2022/04/03 06:47:26;;;;;;;13.60;3.13;;;7.60;91.50;;;;;;5032793;28;20140;-90
2022/04/03 06:49:53;;;;;;;4.93;2.28;;;8.60;90.10;;;;;;5032394;28;20054;-89
2022/04/03 06:52:19;;;;;;;5.40;2.25;;;8.60;87.50;;;;;;5032274;28;20045;-89
2022/04/03 06:54:52;;;;;;;5.10;1.58;;;8.40;84.90;;;;;;5032498;28;20066;-90
2022/04/03 06:57:18;;;;;;;2.80;1.70;;;7.50;84.90;;;;;;5032516;28;20446;-90
2022/04/03 06:59:46;;;;;;;2.17;1.90;;;6.80;85.90;;;;;;5034920;28;20057;-89
2022/04/03 07:02:13;;;;;;;3.20;1.85;;;5.90;89.30;;;;;;5034165;28;20103;-90
2022/04/03 07:04:40;;;;;;;4.00;2.40;;;5.50;92.20;;;;;;5032059;28;20133;-90
2022/04/03 07:07:06;;;;;;;3.90;2.17;;;5.40;92.80;;;;;;5032332;28;20549;-90
2022/04/03 07:09:39;;;;;;;5.40;2.22;;;6.10;91.40;;;;;;5031993;28;20480;-87
2022/04/03 07:12:08;;;;;;;2.72;1.75;;;5.60;91.30;;;;;;5031995;28;20041;-86
2022/04/03 07:14:35;;;;;;;6.15;2.20;;;5.40;92.50;;;;;;5032356;28;20137;-86
2022/04/03 07:17:02;;;;;;;4.55;1.98;;;5.70;92.20;;;;;;5031783;28;20573;-86
2022/04/03 07:19:29;;;;;;;5.22;1.75;;;6.00;90.80;;;;;;5032296;28;20454;-85
2022/04/03 07:21:57;;;;;;;2.63;2.08;;;6.10;91.00;;;;;;5032020;28;20136;-85
2022/04/03 07:24:25;;;;;;;4.25;1.67;;;6.70;91.40;;;;;;5032419;28;20477;-86
2022/04/03 07:26:53;;;;;;;4.13;1.58;;;7.70;87.60;;;;;;5032612;28;20572;-86
2022/04/03 07:29:24;;;;;;;2.72;1.67;;;8.90;83.40;;;;;;5031804;28;20107;-86
2022/04/03 07:31:51;;;;;;;2.40;1.60;;;9.30;80.10;;;;;;5032283;28;20541;-86
2022/04/03 07:34:18;;;;;;;5.80;3.85;;;9.50;76.80;;;;;;5032401;28;20489;-86
2022/04/03 07:36:45;;;;;;;4.03;2.50;;;8.80;76.90;;;;;;5032693;28;20577;-86
2022/04/03 07:39:12;;;;;;;2.97;1.45;;;8.30;79.50;;;;;;5031972;28;20049;-86
2022/04/03 07:41:39;;;;;;;2.25;1.85;;;9.50;78.10;;;;;;5031872;28;20128;-85
2022/04/03 07:44:08;;;;;;;3.42;1.60;;;10.00;74.00;;;;;;5031764;28;20152;-86
2022/04/03 07:46:40;;;;;;;2.58;1.50;;;9.90;74.50;;;;;;5032500;28;20055;-86
2022/04/03 07:49:07;;;;;;;2.97;1.58;;;9.90;74.10;;;;;;5032290;28;20063;-87
2022/04/03 07:51:34;;;;;;;4.47;1.75;;;11.40;72.00;;;;;;5032421;28;20069;-87
2022/04/03 07:54:01;;;;;;;2.25;1.27;;;12.00;69.50;;;;;;5032371;28;20152;-87
2022/04/03 07:56:27;;;;;;;2.10;1.38;;;13.50;66.10;;;;;;5032091;28;20084;-87
2022/04/03 07:58:54;;;;;;;2.03;1.20;;;11.90;64.70;;;;;;5032134;28;20516;-87
2022/04/03 08:01:21;;;;;;;3.80;1.40;;;9.20;69.00;;;;;;5032268;28;20128;-87
2022/04/03 08:03:48;;;;;;;1.80;1.30;;;10.60;69.70;;;;;;5032099;28;20103;-87
2022/04/03 08:06:15;;;;;;;2.28;1.45;;;10.50;67.80;;;;;;5032183;28;20064;-87
2022/04/03 08:08:41;;;;;;;1.73;1.25;;;13.20;65.80;;;;;;5032200;28;20080;-87
2022/04/03 08:11:09;;;;;;;3.05;1.77;;;14.20;61.30;;;;;;5031744;28;20073;-86
2022/04/03 08:13:36;;;;;;;2.40;1.58;;;13.00;59.40;;;;;;5033814;28;20144;-86
2022/04/03 08:16:03;;;;;;;3.65;1.75;;;13.40;59.20;;;;;;5042960;28;20073;-87
2022/04/03 08:18:30;;;;;;;3.10;1.50;;;14.40;58.70;;;;;;5033166;28;20081;-86
2022/04/03 08:21:02;;;;;;;2.90;1.65;;;15.20;55.10;;;;;;5031503;28;20060;-86
2022/04/03 08:23:28;;;;;;;1.45;1.35;;;14.60;54.60;;;;;;5031162;28;20056;-86
2022/04/03 08:25:55;;;;;;;2.33;1.58;;;12.60;57.20;;;;;;5031025;28;20088;-86
2022/04/03 08:28:22;;;;;;;1.83;1.25;;;10.90;60.80;;;;;;5031459;28;20059;-86
2022/04/03 08:30:49;;;;;;;2.85;1.77;;;13.40;59.90;;;;;;5031463;28;20148;-86
2022/04/03 08:45:57;;;;;;;6.25;1.98;;;13.70;57.70;;;;;;5071868;28;20880;-79
2022/04/03 08:48:26;;;;;;;2.30;1.50;;;14.50;54.90;;;;;;5071234;28;20144;-80
2022/04/03 08:50:56;;;;;;;4.40;1.25;;;13.90;56.70;;;;;;5069692;28;20066;-80
2022/04/03 08:53:25;;;;;;;5.13;1.25;;;14.70;54.30;;;;;;5071136;28;20045;-81
2022/04/03 08:55:52;;;;;;;2.05;0.90;;;14.10;55.60;;;;;;5071126;28;20080;-80
2022/04/03 08:58:20;;;;;;;2.05;1.00;;;15.20;54.90;;;;;;5070330;28;20076;-79
2022/04/03 09:00:47;;;;;;;2.17;1.08;;;15.40;51.90;;;;;;5064856;23;20047;-83
2022/04/03 09:03:14;;;;;;;3.35;1.35;;;13.40;51.30;;;;;;5008258;28;20133;-82
2022/04/03 09:05:45;;;;;;;1.50;1.10;;;10.70;51.90;;;;;;5007972;28;20077;-83
2022/04/03 09:08:14;;;;;;;3.83;1.42;;;9.40;56.50;;;;;;5007628;28;20070;-82
2022/04/03 09:10:41;;;;;;;4.63;1.20;;;9.30;59.80;;;;;;5009081;28;20070;-82
2022/04/03 09:13:09;;;;;;;1.17;1.05;;;10.80;60.10;;;;;;5008422;28;20396;-82
2022/04/03 09:15:37;;;;;;;1.70;1.02;;;11.90;57.30;;;;;;5091684;23;20173;-78
2022/04/03 09:18:04;;;;;;;2.47;0.90;;;10.50;56.50;;;;;;5091279;28;20044;-79
2022/04/03 09:20:33;;;;;;;2.75;1.10;;;10.20;56.80;;;;;;5090004;28;20071;-79
2022/04/03 09:23:02;;;;;;;1.60;1.42;;;9.60;57.90;;;;;;5091687;28;20415;-79
2022/04/03 09:25:41;;;;;;;1.38;1.20;;;8.50;59.20;;;;;;5092526;28;20048;-79
2022/04/03 09:28:11;;;;;;;2.00;1.27;;;7.70;60.60;;;;;;5090871;28;20052;-78
2022/04/03 09:30:45;;;;;;;2.55;1.70;;;7.30;62.20;;;;;;5092728;28;20062;-79
2022/04/03 09:33:19;;;;;;;1.67;1.50;;;6.70;65.60;;;;;;5091671;28;20469;-79
2022/04/03 09:36:01;;;;;;;2.03;1.33;;;5.80;68.00;;;;;;5092891;28;20044;-79
2022/04/03 09:38:30;;;;;;;1.25;1.15;;;5.70;69.80;;;;;;5091258;28;20062;-79
2022/04/03 09:40:58;;;;;;;1.98;1.38;;;5.00;69.90;;;;;;5091353;28;20076;-78
2022/04/03 09:43:34;;;;;;;1.60;1.42;;;4.90;71.40;;;;;;5091523;28;20055;-78
2022/04/03 09:46:07;;;;;;;1.20;1.10;;;5.10;71.60;;;;;;5083394;28;20087;-79
2022/04/03 09:48:41;;;;;;;5.78;1.30;;;5.40;70.20;;;;;;5079279;28;20058;-79
2022/04/03 09:51:19;;;;;;;15.82;2.25;;;6.30;69.80;;;;;;5078363;28;20084;-81
2022/04/03 09:53:58;;;;;;;1.48;1.20;;;7.60;72.90;;;;;;5077273;28;20068;-79
2022/04/03 09:56:34;;;;;;;1.58;1.23;;;10.50;65.70;;;;;;5077747;28;20048;-79
2022/04/03 09:59:03;;;;;;;111.63;43.70;;;10.60;57.80;;;;;;5079701;28;20394;-79
2022/04/03 10:01:34;;;;;;;94.60;32.10;;;10.70;58.40;;;;;;5080189;28;20051;-79
2022/04/03 10:04:03;;;;;;;4.60;4.13;;;9.40;56.30;;;;;;5079981;28;20098;-79
2022/04/03 10:06:33;;;;;;;1.00;1.00;;;8.20;57.30;;;;;;5080464;28;20075;-79
2022/04/03 10:09:02;;;;;;;1.48;0.93;;;7.90;58.00;;;;;;5080080;28;20044;-79
2022/04/03 10:11:30;;;;;;;13.77;8.13;;;6.90;60.20;;;;;;5079270;28;20444;-80
2022/04/03 10:14:00;;;;;;;1.88;1.50;;;6.30;61.20;;;;;;5081695;28;20068;-80
2022/04/03 10:16:27;;;;;;;1.10;1.00;;;6.30;62.90;;;;;;5079359;28;20047;-80
2022/04/03 10:18:56;;;;;;;371.13;194.63;;;7.10;60.70;;;;;;5072663;28;20037;-80
2022/04/03 10:21:44;;;;;;;3.65;2.72;;;7.60;60.90;;;;;;5078065;28;20072;-79
2022/04/03 10:24:23;;;;;;;6.03;3.63;;;7.40;62.40;;;;;;5078381;28;20049;-80
2022/04/03 10:27:04;;;;;;;3.47;0.85;;;7.40;61.40;;;;;;5077973;28;20052;-80
2022/04/03 10:29:34;;;;;;;1.15;0.80;;;8.60;59.80;;;;;;5078712;28;20052;-81
2022/04/03 10:32:05;;;;;;;1.88;1.60;;;8.40;57.40;;;;;;5080910;28;20056;-81
2022/04/03 10:34:56;;;;;;;11.82;2.03;;;8.70;55.80;;;;;;5079811;28;20041;-81
2022/04/03 10:37:43;;;;;;;5.35;1.17;;;8.70;57.30;;;;;;5079898;28;20072;-81
2022/04/03 10:40:18;;;;;;;1.08;0.95;;;8.20;57.70;;;;;;5079714;28;20463;-81
2022/04/03 10:42:52;;;;;;;0.95;0.95;;;7.30;59.10;;;;;;5079655;28;20111;-81
2022/04/03 10:45:24;;;;;;;1.70;1.60;;;7.00;58.60;;;;;;5081287;28;20533;-82
2022/04/03 10:47:52;;;;;;;1.50;1.10;;;6.20;61.80;;;;;;5078571;28;20052;-80
2022/04/03 10:50:19;;;;;;;2.30;1.00;;;5.90;62.20;;;;;;5078306;28;20049;-81
2022/04/03 10:52:45;;;;;;;1.05;0.98;;;5.80;64.20;;;;;;5077221;28;20049;-80
2022/04/03 10:55:26;;;;;;;1.52;0.70;;;7.00;63.30;;;;;;5075306;28;20071;-80
2022/04/03 10:58:06;;;;;;;2.83;0.93;;;10.00;59.10;;;;;;5074584;28;20102;-80
2022/04/03 11:00:38;;;;;;;2.33;2.13;;;11.70;57.10;;;;;;5075736;28;20132;-80
2022/04/03 11:03:14;;;;;;;3.38;1.50;;;13.70;52.30;;;;;;5077382;28;20072;-80
2022/04/03 11:05:45;;;;;;;7.43;1.63;;;17.00;49.70;;;;;;5075212;28;20048;-80
2022/04/03 11:08:12;;;;;;;3.60;1.80;;;16.40;44.10;;;;;;5076193;28;20092;-80
2022/04/03 11:10:48;;;;;;;2.30;0.80;;;15.10;45.20;;;;;;5077904;28;20091;-80
2022/04/03 11:13:23;;;;;;;1.48;1.00;;;15.50;47.60;;;;;;5076174;28;20060;-79
2022/04/03 11:16:15;;;;;;;0.70;0.70;;;13.60;45.50;;;;;;5076376;28;20072;-80
2022/04/03 11:18:42;;;;;;;2.90;1.48;;;13.10;47.10;;;;;;5076624;28;20114;-80
2022/04/03 11:21:26;;;;;;;1.00;0.88;;;11.40;49.30;;;;;;5077946;28;20087;-82
2022/04/03 11:24:05;;;;;;;5.25;1.08;;;11.50;50.70;;;;;;5078210;28;20075;-81
2022/04/03 11:26:34;;;;;;;7.72;1.83;;;10.50;49.80;;;;;;5078871;28;20044;-81
2022/04/03 11:29:04;;;;;;;1.30;0.80;;;9.50;51.50;;;;;;5080442;28;20075;-81
2022/04/03 11:31:34;;;;;;;3.03;1.23;;;10.20;53.70;;;;;;5078457;28;20491;-82
2022/04/03 11:34:06;;;;;;;3.58;1.52;;;12.40;51.00;;;;;;5074798;28;20064;-80
2022/04/03 11:36:33;;;;;;;2.97;1.10;;;13.60;49.50;;;;;;5074044;28;20139;-79
2022/04/03 11:39:06;;;;;;;0.80;0.80;;;14.50;48.50;;;;;;5074512;28;20506;-80
2022/04/03 11:41:35;;;;;;;1.02;1.02;;;16.60;47.10;;;;;;5075954;28;20106;-81
2022/04/03 11:44:14;;;;;;;1.27;1.10;;;16.30;47.60;;;;;;5074517;28;20124;-79
2022/04/03 11:46:43;;;;;;;1.73;1.05;;;15.90;44.60;;;;;;5074675;28;20102;-80
2022/04/03 11:49:21;;;;;;;2.05;1.00;;;14.60;44.50;;;;;;5075176;28;20048;-80
2022/04/03 11:51:54;;;;;;;0.90;0.90;;;13.20;46.10;;;;;;5075527;28;20101;-80
2022/04/03 11:54:21;;;;;;;1.57;1.07;;;11.60;47.20;;;;;;5077277;28;20142;-81
2022/04/03 11:56:49;;;;;;;1.02;0.98;;;10.90;50.20;;;;;;5078799;28;20144;-81
2022/04/03 11:59:21;;;;;;;2.25;1.35;;;10.10;51.70;;;;;;5076803;28;20365;-80
2022/04/03 12:01:51;;;;;;;1.33;1.17;;;10.40;51.40;;;;;;5076442;28;20090;-80
2022/04/03 12:04:21;;;;;;;1.30;1.20;;;11.30;53.10;;;;;;5075978;28;20098;-79
2022/04/03 12:06:55;;;;;;;0.93;0.88;;;12.40;50.60;;;;;;5076555;28;20131;-82
2022/04/03 12:09:23;;;;;;;1.92;1.00;;;13.80;47.30;;;;;;5074966;28;20052;-80
2022/04/03 12:11:53;;;;;;;2.05;1.00;;;14.80;46.60;;;;;;5076732;28;20079;-80
2022/04/03 12:14:25;;;;;;;1.35;1.00;;;15.10;46.90;;;;;;5075190;28;20135;-81
2022/04/03 12:17:06;;;;;;;4.70;1.48;;;15.20;47.60;;;;;;5077487;28;20049;-80
2022/04/03 12:19:39;;;;;;;2.67;1.23;;;14.90;45.90;;;;;;5075302;28;20040;-79
2022/04/03 12:22:10;;;;;;;1.73;1.33;;;12.20;48.50;;;;;;5076426;28;20048;-80
2022/04/03 12:24:38;;;;;;;1.83;1.30;;;10.70;49.70;;;;;;5075938;28;20048;-80
2022/04/03 12:27:12;;;;;;;1.40;1.33;;;9.50;51.50;;;;;;5076209;28;20106;-80
2022/04/03 12:29:41;;;;;;;6.38;2.10;;;9.20;53.20;;;;;;5075436;28;20056;-80
2022/04/03 12:32:12;;;;;;;1.90;1.25;;;9.30;54.70;;;;;;5076126;28;20060;-81
2022/04/03 12:34:44;;;;;;;2.05;1.40;;;9.70;53.80;;;;;;5078265;28;20177;-80
2022/04/03 12:37:12;;;;;;;1.80;1.30;;;9.50;54.50;;;;;;5078842;28;20456;-81
2022/04/03 12:39:41;;;;;;;2.35;1.40;;;9.00;54.10;;;;;;5078362;28;20040;-81
2022/04/03 12:42:10;;;;;;;1.50;1.40;;;8.10;55.80;;;;;;5078751;28;20083;-80
2022/04/03 12:44:42;;;;;;;4.68;1.40;;;6.60;59.00;;;;;;5077754;28;20079;-81
2022/04/03 12:47:17;;;;;;;1.40;1.17;;;5.90;61.40;;;;;;5078071;28;20080;-79
2022/04/03 12:50:11;;;;;;;2.03;1.20;;;6.10;63.20;;;;;;5076258;28;20048;-79
2022/04/03 12:52:47;;;;;;;1.48;1.38;;;7.20;60.60;;;;;;5073568;28;20057;-80
2022/04/03 12:55:21;;;;;;;5.55;1.60;;;8.00;58.60;;;;;;5077727;28;20185;-80
2022/04/03 13:05:23;;;;;;;1.45;1.20;;;6.80;58.80;;;;;;5185037;22;20055;-86
2022/04/03 13:07:50;;;;;;;1.40;1.30;;;7.00;61.60;;;;;;5070306;28;20514;-85
2022/04/03 13:10:19;;;;;;;1.10;1.10;;;7.50;60.20;;;;;;5071391;28;20048;-86
2022/04/03 13:12:49;;;;;;;1.92;1.40;;;8.70;59.80;;;;;;5070913;28;20083;-86
2022/04/03 13:15:17;;;;;;;1.52;1.42;;;9.50;57.20;;;;;;5070759;28;20075;-87
2022/04/03 13:17:44;;;;;;;1.38;1.30;;;9.60;55.60;;;;;;5071404;28;20059;-87